Time;durP1;ratioP1;P1;durP2;ratioP2;P2;SDS_P1;SDS_P2;PMS_P1;PMS_P2;Temp;Humidity;BMP_temperature;BMP_pressure;BME280_temperature;BME280_humidity;BME280_pressure;Samples;Min_cycle;Max_cycle;Signal;HPM_P1;HPM_P2
2022/09/26 00:01:22;;;;;;;8.73;5.13;;;;;;;7.88;100.00;100310.13;6002481;28;20112;-67
2022/09/26 00:04:21;;;;;;;8.18;4.65;;;;;;;7.89;100.00;100306.50;6000447;28;20458;-67
2022/09/26 00:07:17;;;;;;;10.32;4.10;;;;;;;7.94;100.00;100293.69;6000501;28;20053;-67
2022/09/26 00:10:12;;;;;;;7.97;4.18;;;;;;;8.05;100.00;100306.75;5999250;28;20498;-67
2022/09/26 00:13:07;;;;;;;8.70;4.43;;;;;;;7.95;100.00;100293.56;6000592;28;20035;-68
2022/09/26 00:16:03;;;;;;;9.45;4.32;;;;;;;8.01;100.00;100282.47;6000055;28;20502;-68
2022/09/26 00:18:59;;;;;;;8.85;3.85;;;;;;;8.02;100.00;100285.91;5999108;28;20043;-67
2022/09/26 00:21:54;;;;;;;8.00;3.90;;;;;;;7.99;100.00;100273.81;5999501;28;20355;-67
2022/09/26 00:24:49;;;;;;;8.23;3.73;;;;;;;8.09;100.00;100289.69;6000289;28;20030;-68
2022/09/26 00:27:44;;;;;;;6.93;4.07;;;;;;;7.98;100.00;100266.91;6011576;28;20023;-68
2022/09/26 00:30:40;;;;;;;7.57;4.10;;;;;;;7.95;100.00;100279.53;6005668;28;20333;-67
2022/09/26 00:33:36;;;;;;;6.07;3.72;;;;;;;8.10;100.00;100271.03;6000195;28;20114;-67
2022/09/26 00:36:32;;;;;;;7.47;3.85;;;;;;;8.07;100.00;100278.44;5999493;28;20379;-67
2022/09/26 00:39:27;;;;;;;7.50;3.67;;;;;;;8.01;100.00;100269.25;5999883;28;20478;-68
2022/09/26 00:42:23;;;;;;;5.38;2.85;;;;;;;8.14;100.00;100261.88;5998880;28;20031;-67
2022/09/26 00:45:18;;;;;;;9.20;3.83;;;;;;;8.17;100.00;100264.25;5999178;28;20073;-68
2022/09/26 00:48:14;;;;;;;8.17;3.93;;;;;;;8.10;100.00;100257.03;6014077;28;20501;-68
2022/09/26 00:51:10;;;;;;;8.02;3.70;;;;;;;8.06;100.00;100266.19;6005835;28;20034;-67
2022/09/26 00:54:07;;;;;;;7.97;3.72;;;;;;;8.03;100.00;100256.75;5999748;28;20042;-68
2022/09/26 00:57:07;;;;;;;8.18;3.28;;;;;;;8.00;100.00;100242.97;5999365;28;20039;-67
2022/09/26 01:00:06;;;;;;;8.00;3.95;;;;;;;8.08;100.00;100243.09;6003993;28;20084;-67
2022/09/26 01:03:02;;;;;;;10.52;3.70;;;;;;;8.06;100.00;100240.63;6013140;28;20042;-67
2022/09/26 01:05:59;;;;;;;5.78;3.50;;;;;;;8.02;100.00;100228.66;5998994;28;20027;-67
2022/09/26 01:09:07;;;;;;;7.03;3.20;;;;;;;8.03;100.00;100229.50;5997870;28;20050;-67
2022/09/26 01:12:04;;;;;;;5.43;2.95;;;;;;;7.96;100.00;100226.63;5998407;28;20065;-68
2022/09/26 01:15:00;;;;;;;7.30;4.00;;;;;;;7.91;100.00;100215.63;5998822;28;20045;-67
2022/09/26 01:17:55;;;;;;;7.43;3.42;;;;;;;8.02;100.00;100212.81;6002963;28;20544;-67
2022/09/26 01:20:58;;;;;;;7.38;3.63;;;;;;;8.05;100.00;100196.69;6016356;28;20426;-68
2022/09/26 01:24:12;;;;;;;10.98;3.35;;;;;;;8.17;100.00;100208.78;6015520;28;20062;-67
2022/09/26 01:27:30;;;;;;;5.85;3.38;;;;;;;7.85;100.00;100184.53;5998602;28;20031;-67
2022/09/26 01:30:27;;;;;;;7.43;3.13;;;;;;;7.93;100.00;100187.28;5996794;28;20043;-68
2022/09/26 01:33:40;;;;;;;4.07;2.53;;;;;;;7.87;100.00;100189.66;5998879;28;20035;-67
2022/09/26 01:37:20;;;;;;;7.15;2.70;;;;;;;7.93;100.00;100208.41;6019754;28;20043;-67
2022/09/26 01:40:23;;;;;;;6.13;2.85;;;;;;;7.83;100.00;100196.22;5948537;29;20547;-67
2022/09/26 01:43:33;;;;;;;5.32;2.90;;;;;;;7.86;100.00;100182.69;5949109;29;20423;-67
2022/09/26 01:46:45;;;;;;;4.22;2.28;;;;;;;7.84;100.00;100192.56;5997704;28;20381;-67
2022/09/26 01:49:40;;;;;;;5.68;2.22;;;;;;;7.79;100.00;100188.56;6003769;28;20153;-67
2022/09/26 01:52:43;;;;;;;5.07;2.47;;;;;;;7.76;100.00;100180.09;6002190;28;20039;-68
2022/09/26 01:55:42;;;;;;;5.38;3.22;;;;;;;7.84;100.00;100188.13;6036625;28;20042;-67
2022/09/26 01:58:57;;;;;;;9.02;2.97;;;;;;;7.88;100.00;100180.78;6020530;28;20065;-67
2022/09/26 02:01:59;;;;;;;3.78;2.00;;;;;;;7.94;100.00;100180.19;6020480;28;20106;-67
2022/09/26 02:05:08;;;;;;;5.38;2.08;;;;;;;7.90;100.00;100155.91;6013879;28;20038;-67
2022/09/26 02:08:13;;;;;;;8.30;2.17;;;;;;;7.97;100.00;100159.63;6012336;28;20071;-67
2022/09/26 02:11:17;;;;;;;5.55;2.22;;;;;;;8.08;100.00;100164.72;6012955;28;20039;-67
2022/09/26 02:14:17;;;;;;;4.88;2.00;;;;;;;8.05;100.00;100159.75;6030116;28;20030;-67
2022/09/26 02:17:19;;;;;;;8.55;2.10;;;;;;;8.07;100.00;100152.50;6004746;28;20035;-67
2022/09/26 02:20:18;;;;;;;6.28;2.13;;;;;;;8.19;100.00;100139.94;6001421;28;20034;-67
2022/09/26 02:23:13;;;;;;;7.25;2.35;;;;;;;8.11;100.00;100132.75;6018038;28;20031;-67
2022/09/26 02:26:08;;;;;;;7.63;2.40;;;;;;;8.19;100.00;100138.16;6002720;28;20246;-67
2022/09/26 02:29:05;;;;;;;5.88;2.20;;;;;;;8.21;100.00;100124.78;6021434;28;20270;-67
2022/09/26 02:32:04;;;;;;;6.20;2.10;;;;;;;8.29;100.00;100136.31;6025797;28;20038;-67
2022/09/26 02:35:00;;;;;;;6.40;2.20;;;;;;;8.29;100.00;100115.19;6033556;28;20460;-67
2022/09/26 02:37:55;;;;;;;7.20;2.10;;;;;;;8.32;100.00;100117.53;6001690;28;20042;-67
2022/09/26 02:41:04;;;;;;;4.90;2.00;;;;;;;8.53;100.00;100121.78;6001988;28;20038;-67
2022/09/26 02:44:18;;;;;;;6.25;1.73;;;;;;;8.56;100.00;100126.75;6002444;28;20082;-67
2022/09/26 02:47:16;;;;;;;10.07;2.08;;;;;;;8.51;100.00;100123.69;6010159;28;20041;-68
2022/09/26 02:50:24;;;;;;;14.27;1.80;;;;;;;8.60;100.00;100120.19;6005783;28;20470;-67
2022/09/26 02:53:48;;;;;;;3.75;1.75;;;;;;;8.58;100.00;100108.94;6002218;28;20467;-67
2022/09/26 02:57:02;;;;;;;6.10;1.77;;;;;;;8.52;100.00;100091.03;6001381;28;20042;-67
2022/09/26 02:59:58;;;;;;;4.32;2.42;;;;;;;8.61;100.00;100101.56;6001944;28;20030;-67
2022/09/26 03:03:06;;;;;;;4.20;1.98;;;;;;;8.63;100.00;100096.94;6002918;28;20062;-67
2022/09/26 03:06:05;;;;;;;4.18;1.70;;;;;;;8.63;100.00;100096.94;6001809;28;20042;-67
2022/09/26 03:09:02;;;;;;;9.82;2.25;;;;;;;8.65;100.00;100094.97;6001988;28;20045;-67
2022/09/26 03:12:00;;;;;;;4.15;1.92;;;;;;;8.56;100.00;100077.34;6011413;28;20069;-67
2022/09/26 03:14:57;;;;;;;6.00;1.90;;;;;;;8.53;100.00;100072.41;6015189;28;20047;-68
2022/09/26 03:17:53;;;;;;;5.30;2.33;;;;;;;8.50;100.00;100062.13;6009347;28;20432;-67
2022/09/26 03:20:52;;;;;;;5.00;2.13;;;;;;;8.54;100.00;100060.00;6003735;28;20097;-67
2022/09/26 03:23:48;;;;;;;3.65;2.08;;;;;;;8.49;100.00;100057.81;6001994;28;20553;-67
2022/09/26 03:26:44;;;;;;;5.15;2.40;;;;;;;8.51;100.00;100062.94;5999948;28;20027;-67
2022/09/26 03:29:39;;;;;;;9.93;2.75;;;;;;;8.50;100.00;100053.34;6000281;28;20030;-68
2022/09/26 03:32:36;;;;;;;6.47;2.58;;;;;;;8.41;100.00;100043.69;6001104;28;20142;-67
2022/09/26 03:35:31;;;;;;;3.55;2.05;;;;;;;8.43;100.00;100033.78;6008018;28;20035;-67
2022/09/26 03:38:26;;;;;;;7.57;2.10;;;;;;;8.38;100.00;100050.94;6001578;28;20026;-67
2022/09/26 03:41:22;;;;;;;3.47;1.90;;;;;;;8.41;100.00;100039.22;6004032;28;20394;-67
2022/09/26 03:44:17;;;;;;;4.85;2.22;;;;;;;8.47;100.00;100046.56;6024997;28;20111;-68
2022/09/26 03:47:13;;;;;;;3.83;1.87;;;;;;;8.31;100.00;100034.03;6004776;28;20093;-67
2022/09/26 03:50:09;;;;;;;5.75;2.22;;;;;;;8.36;100.00;100030.91;6000556;28;20042;-68
2022/09/26 03:53:05;;;;;;;6.03;2.33;;;;;;;8.40;100.00;100027.00;6005488;28;20038;-67
2022/09/26 03:56:06;;;;;;;6.38;2.70;;;;;;;8.40;100.00;100016.41;6024368;28;20158;-66
2022/09/26 03:59:01;;;;;;;7.13;2.42;;;;;;;8.47;100.00;100028.06;6022547;28;20034;-66
2022/09/26 04:01:57;;;;;;;5.97;2.60;;;;;;;8.45;100.00;100010.72;5999646;28;20058;-67
2022/09/26 04:04:52;;;;;;;5.17;2.50;;;;;;;8.44;100.00;100007.22;6000705;28;20118;-67
2022/09/26 04:07:47;;;;;;;5.13;2.17;;;;;;;8.58;100.00;100013.81;6000536;28;20034;-67
2022/09/26 04:10:43;;;;;;;4.47;1.98;;;;;;;8.60;100.00;100015.31;5998917;28;20145;-67
2022/09/26 04:13:38;;;;;;;10.53;2.40;;;;;;;8.55;100.00;100003.53;5996887;28;20045;-67
2022/09/26 04:16:35;;;;;;;5.95;2.40;;;;;;;8.55;100.00;99993.81;6007015;28;20038;-67
2022/09/26 04:19:31;;;;;;;3.55;1.90;;;;;;;8.57;100.00;99994.47;6013533;28;20699;-67
2022/09/26 04:22:26;;;;;;;6.95;2.67;;;;;;;8.61;100.00;99995.00;5997482;28;20035;-68
2022/09/26 04:25:21;;;;;;;5.30;2.20;;;;;;;8.66;100.00;100004.16;5996600;28;20089;-67
2022/09/26 04:28:16;;;;;;;5.77;2.37;;;;;;;8.61;100.00;99979.16;5997430;28;20027;-67
2022/09/26 04:31:12;;;;;;;6.57;1.97;;;;;;;8.68;100.00;99988.13;5996955;28;20488;-67
2022/09/26 04:34:10;;;;;;;4.83;1.97;;;;;;;8.70;100.00;99981.69;6015602;28;20023;-67
2022/09/26 04:37:05;;;;;;;5.68;2.25;;;;;;;8.66;100.00;99968.97;6002865;28;20035;-68
2022/09/26 04:40:01;;;;;;;3.90;1.90;;;;;;;8.73;100.00;99976.13;5996176;28;20089;-68
2022/09/26 04:42:56;;;;;;;8.77;2.23;;;;;;;8.75;100.00;99982.06;5999864;28;20035;-67
2022/09/26 04:45:52;;;;;;;4.30;2.10;;;;;;;8.71;100.00;99971.97;6019379;28;20130;-67
2022/09/26 04:48:48;;;;;;;8.60;2.10;;;;;;;8.70;99.92;99965.00;6004222;28;20153;-67
2022/09/26 04:51:44;;;;;;;4.28;1.83;;;;;;;8.74;100.00;99971.66;6001990;28;20085;-67
2022/09/26 04:54:39;;;;;;;5.35;1.80;;;;;;;8.73;100.00;99954.13;6015889;28;20149;-67
2022/09/26 04:57:36;;;;;;;8.20;2.20;;;;;;;8.75;100.00;99952.19;6005429;28;20043;-67
2022/09/26 05:00:32;;;;;;;9.05;2.60;;;;;;;8.67;100.00;99937.06;5997692;28;20023;-67
2022/09/26 05:03:28;;;;;;;7.73;2.60;;;;;;;8.78;100.00;99946.56;5998399;28;20493;-67
2022/09/26 05:06:23;;;;;;;5.85;2.15;;;;;;;8.70;99.65;99934.13;5998073;28;20382;-67
2022/09/26 05:09:19;;;;;;;4.05;1.92;;;;;;;8.69;99.25;99929.84;6003378;28;20073;-67
2022/09/26 05:12:16;;;;;;;6.63;2.17;;;;;;;8.64;99.25;99912.78;6008623;28;20034;-67
2022/09/26 05:15:13;;;;;;;6.80;2.00;;;;;;;8.71;98.94;99922.59;5995833;28;20372;-67
2022/09/26 05:18:10;;;;;;;3.60;1.98;;;;;;;8.72;98.70;99924.25;6005208;28;20118;-67
2022/09/26 05:21:06;;;;;;;3.83;1.85;;;;;;;8.71;98.86;99917.31;5999319;28;20035;-67
2022/09/26 05:27:17;;;;;;;3.25;1.95;;;;;;;8.76;98.45;99922.13;5996345;28;20028;-67
2022/09/26 05:30:12;;;;;;;4.22;1.98;;;;;;;8.84;98.69;99924.81;5994588;28;20045;-67
2022/09/26 05:33:08;;;;;;;3.83;2.07;;;;;;;8.88;98.10;99915.59;5995263;28;20031;-67
2022/09/26 05:36:07;;;;;;;4.13;1.83;;;;;;;8.90;98.00;99913.63;5996347;28;20358;-67
2022/09/26 05:39:04;;;;;;;8.30;1.88;;;;;;;8.91;97.87;99908.16;6004435;28;20139;-68
2022/09/26 05:41:59;;;;;;;5.57;2.15;;;;;;;8.92;97.37;99911.66;5998466;28;20031;-67
2022/09/26 05:44:54;;;;;;;6.10;2.17;;;;;;;8.91;96.97;99907.38;5998369;28;20054;-67
2022/09/26 05:47:49;;;;;;;4.10;1.63;;;;;;;8.87;96.75;99895.44;5999341;28;20345;-68
2022/09/26 05:50:45;;;;;;;3.53;2.03;;;;;;;8.84;97.16;99909.78;6007240;28;20185;-67
2022/09/26 05:53:42;;;;;;;4.80;2.23;;;;;;;8.77;97.53;99900.84;6014280;28;20265;-67
2022/09/26 05:56:37;;;;;;;4.28;1.77;;;;;;;8.76;97.36;99901.81;6017457;28;20026;-68
2022/09/26 05:59:33;;;;;;;4.00;1.70;;;;;;;8.83;97.58;99896.75;6017210;28;20103;-68
2022/09/26 06:02:28;;;;;;;4.37;1.93;;;;;;;8.89;97.16;99896.09;6007164;28;20398;-67
2022/09/26 06:05:24;;;;;;;5.73;1.77;;;;;;;9.08;96.54;99916.25;6005734;28;20039;-68
2022/09/26 06:08:19;;;;;;;3.88;1.60;;;;;;;8.99;95.67;99878.34;6008133;28;20023;-67
2022/09/26 06:11:17;;;;;;;4.20;1.50;;;;;;;9.34;95.18;99909.94;6005255;28;20042;-68
2022/09/26 06:14:12;;;;;;;2.17;1.25;;;;;;;9.32;94.62;99885.44;6025290;28;20026;-68
2022/09/26 06:17:08;;;;;;;5.30;1.58;;;;;;;9.36;94.52;99892.06;6009106;28;20118;-68
2022/09/26 06:20:04;;;;;;;4.50;1.53;;;;;;;9.31;93.96;99885.59;6015412;28;20042;-68
2022/09/26 06:23:00;;;;;;;3.45;1.42;;;;;;;9.40;93.68;99877.53;6016059;28;20158;-68
2022/09/26 06:25:57;;;;;;;3.47;1.45;;;;;;;9.42;93.81;99888.81;6004634;28;20031;-67
2022/09/26 06:28:57;;;;;;;6.97;1.85;;;;;;;9.35;93.38;99881.63;6005649;28;20877;-67
2022/09/26 06:31:52;;;;;;;3.53;1.75;;;;;;;9.29;93.72;99877.84;6004959;28;20045;-68
2022/09/26 06:34:49;;;;;;;3.60;1.90;;;;;;;9.50;93.49;99880.91;6005418;28;20066;-67
2022/09/26 06:37:44;;;;;;;3.53;1.27;;;;;;;9.42;93.40;99862.34;6005897;28;20031;-67
2022/09/26 06:40:39;;;;;;;4.80;1.30;;;;;;;9.59;93.26;99874.63;6011715;28;20464;-67
2022/09/26 06:43:35;;;;;;;4.93;1.80;;;;;;;9.69;92.06;99863.91;6029277;28;20034;-67
2022/09/26 06:46:31;;;;;;;2.92;1.95;;;;;;;9.78;91.24;99862.97;6029374;28;20030;-67
2022/09/26 06:49:27;;;;;;;4.73;1.13;;;;;;;9.91;90.77;99846.59;6029394;28;20056;-67
2022/09/26 06:52:22;;;;;;;5.25;1.58;;;;;;;10.06;90.15;99844.94;6017508;28;20357;-67
2022/09/26 06:55:18;;;;;;;6.60;1.60;;;;;;;10.08;89.51;99858.88;6017477;28;20042;-67
2022/09/26 06:58:13;;;;;;;3.22;1.60;;;;;;;9.95;89.15;99842.63;6029428;28;20488;-68
2022/09/26 07:01:09;;;;;;;3.63;1.70;;;;;;;9.90;89.44;99831.69;6026808;28;20030;-67
2022/09/26 07:04:05;;;;;;;9.68;2.38;;;;;;;10.11;89.72;99850.56;6019289;28;20041;-67
2022/09/26 07:07:00;;;;;;;3.63;1.60;;;;;;;10.01;89.52;99841.97;6002114;28;20034;-67
2022/09/26 07:09:56;;;;;;;4.47;1.58;;;;;;;10.02;89.74;99843.63;6001862;28;20027;-67
2022/09/26 07:12:58;;;;;;;8.68;1.40;;;;;;;10.04;89.54;99825.75;6001541;28;20034;-68
2022/09/26 07:15:56;;;;;;;5.28;1.42;;;;;;;10.07;89.17;99846.63;6005935;28;20068;-67
2022/09/26 07:18:51;;;;;;;4.57;2.08;;;;;;;9.95;89.35;99827.56;6024305;28;20437;-67
2022/09/26 07:21:46;;;;;;;6.00;1.50;;;;;;;10.09;89.69;99844.63;6024558;28;20037;-67
2022/09/26 07:24:47;;;;;;;2.80;1.23;;;;;;;10.13;89.47;99836.22;6003877;28;20097;-67
2022/09/26 07:27:48;;;;;;;8.45;1.80;;;;;;;10.28;89.08;99828.44;6014701;28;20377;-67
2022/09/26 07:30:43;;;;;;;;;;;;;;;10.53;87.31;99834.56;6000829;28;20114;-67
2022/09/26 07:33:39;;;;;;;3.13;1.57;;;;;;;10.73;87.21;99834.00;6004981;28;19933;-67
2022/09/26 07:36:34;;;;;;;4.78;1.70;;;;;;;10.88;86.22;99830.69;6024908;28;20061;-67
2022/09/26 07:39:29;;;;;;;6.15;1.65;;;;;;;11.09;84.93;99821.16;6024909;28;20046;-67
2022/09/26 07:42:25;;;;;;;6.77;1.90;;;;;;;11.36;84.47;99830.50;6000976;28;20113;-67
2022/09/26 07:50:09;;;;;;;4.83;1.70;;;;;;;11.29;83.56;99810.97;6000637;28;20501;-67
2022/09/26 07:51:53;;;;;;;6.35;1.88;;;;;;;11.44;82.52;99806.56;6009837;28;20035;-67
2022/09/26 07:54:49;;;;;;;4.03;1.70;;;;;;;11.21;82.69;99800.41;6001135;28;20046;-67
2022/09/26 07:57:45;;;;;;;3.40;1.30;;;;;;;11.41;82.38;99803.47;6000483;28;20031;-67
2022/09/26 08:00:41;;;;;;;3.80;1.73;;;;;;;11.60;81.51;99803.84;6000676;28;20030;-67
2022/09/26 08:03:41;;;;;;;5.13;1.70;;;;;;;11.79;81.24;99795.47;6000918;28;20082;-67
2022/09/26 08:06:36;;;;;;;5.25;1.88;;;;;;;11.80;81.24;99813.03;6000189;28;20029;-67
2022/09/26 08:09:31;;;;;;;5.72;2.47;;;;;;;12.04;80.94;99809.38;6000624;28;20039;-67
2022/09/26 08:12:28;;;;;;;3.90;1.50;;;;;;;12.52;78.87;99802.84;6012072;28;20038;-67
2022/09/26 08:15:23;;;;;;;4.40;1.70;;;;;;;12.71;76.34;99793.50;6000401;28;20039;-68
2022/09/26 08:18:19;;;;;;;3.37;1.70;;;;;;;12.77;76.15;99785.63;6023724;28;20373;-67
2022/09/26 08:21:14;;;;;;;3.97;1.70;;;;;;;12.82;76.45;99790.41;6023117;28;20031;-67
2022/09/26 08:24:10;;;;;;;6.93;1.77;;;;;;;13.12;75.96;99778.78;6023904;28;20117;-67
2022/09/26 08:27:05;;;;;;;4.97;2.30;;;;;;;13.34;74.80;99787.66;6023726;28;20030;-67
2022/09/26 08:30:03;;;;;;;4.63;2.22;;;;;;;13.46;73.86;99783.47;6010727;28;20449;-67
2022/09/26 08:32:59;;;;;;;4.88;1.73;;;;;;;13.52;73.39;99774.75;6000063;28;20041;-67
2022/09/26 08:35:55;;;;;;;4.45;1.67;;;;;;;13.67;73.37;99775.50;6007816;28;20132;-67
2022/09/26 08:38:50;;;;;;;7.72;2.47;;;;;;;13.73;71.45;99774.75;6023716;28;20033;-67
2022/09/26 08:41:54;;;;;;;7.03;2.30;;;;;;;13.53;71.78;99763.09;6022640;28;20045;-67
2022/09/26 08:48:48;;;;;;;4.80;1.90;;;;;;;14.31;70.60;99771.00;5999180;28;20541;-67
2022/09/26 08:51:47;;;;;;;6.03;2.10;;;;;;;14.23;69.70;99757.81;6006003;28;20382;-67
2022/09/26 08:54:44;;;;;;;3.88;1.52;;;;;;;14.40;70.85;99739.72;6001350;28;20553;-68
2022/09/26 08:57:43;;;;;;;5.60;1.83;;;;;;;14.98;69.61;99749.91;6021673;28;20048;-68
2022/09/26 09:00:38;;;;;;;4.97;1.58;;;;;;;14.92;66.63;99736.53;6016446;28;20041;-67
2022/09/26 09:03:48;;;;;;;3.63;1.80;;;;;;;14.58;69.72;99738.19;6002174;28;20043;-67
2022/09/26 09:06:44;;;;;;;4.18;1.90;;;;;;;14.43;68.80;99734.00;6012289;28;20050;-68
2022/09/26 09:09:40;;;;;;;4.85;1.88;;;;;;;14.72;68.40;99752.44;6014302;28;20038;-67
2022/09/26 09:12:51;;;;;;;6.65;1.75;;;;;;;15.10;67.79;99744.84;5998311;28;20031;-67
2022/09/26 09:16:04;;;;;;;4.45;1.48;;;;;;;15.74;65.52;99734.56;6004616;28;20126;-68
2022/09/26 09:19:15;;;;;;;4.22;1.63;;;;;;;15.90;64.34;99726.16;5998182;28;20041;-67
2022/09/26 09:22:26;;;;;;;5.97;1.70;;;;;;;15.52;64.58;99706.38;5997073;28;20043;-68
2022/09/26 09:25:30;;;;;;;4.45;1.80;;;;;;;14.92;66.50;99715.97;5997943;28;20041;-67
2022/09/26 09:28:55;;;;;;;6.05;2.03;;;;;;;15.64;65.61;99710.09;5997654;28;20188;-68
2022/09/26 09:31:51;;;;;;;4.50;1.70;;;;;;;15.59;64.22;99710.72;6000072;28;20039;-67
2022/09/26 09:34:48;;;;;;;4.28;1.80;;;;;;;15.55;63.05;99703.28;6014019;28;20791;-68
2022/09/26 09:37:49;;;;;;;4.35;1.60;;;;;;;15.55;63.97;99689.91;6008966;28;20034;-68
2022/09/26 09:40:49;;;;;;;5.85;1.58;;;;;;;15.56;64.70;99707.59;6020766;28;20041;-68
2022/09/26 09:43:50;;;;;;;2.63;1.50;;;;;;;15.59;64.63;99699.19;6001867;28;20093;-68
2022/09/26 09:46:49;;;;;;;5.15;1.70;;;;;;;15.36;65.58;99689.66;6003257;28;20429;-67
2022/09/26 09:49:47;;;;;;;3.78;1.80;;;;;;;15.30;65.47;99698.47;6019805;28;20069;-68
2022/09/26 09:52:54;;;;;;;3.85;1.77;;;;;;;15.63;66.27;99703.09;6010957;28;20038;-68
2022/09/26 09:56:18;;;;;;;5.88;1.40;;;;;;;15.42;64.53;99696.88;6021598;28;20074;-67
2022/09/26 09:59:34;;;;;;;3.40;2.20;;;;;;;15.03;65.86;99704.72;6018993;28;20041;-67
2022/09/26 10:02:51;;;;;;;5.00;1.48;;;;;;;14.48;67.38;99700.38;6021693;28;20567;-67
2022/09/26 10:05:49;;;;;;;6.82;1.52;;;;;;;14.13;68.86;99696.78;6021156;28;20053;-67
2022/09/26 10:08:44;;;;;;;5.35;2.10;;;;;;;14.42;69.26;99686.97;6006878;28;20772;-67
2022/09/26 10:11:41;;;;;;;3.47;1.60;;;;;;;14.58;67.05;99686.66;5997915;28;20030;-67
2022/09/26 10:14:57;;;;;;;3.33;1.30;;;;;;;14.48;67.78;99683.53;5998682;28;20288;-67
2022/09/26 10:18:04;;;;;;;3.78;1.70;;;;;;;14.54;67.08;99664.09;6013382;28;20035;-67
2022/09/26 10:21:07;;;;;;;;;;;;;;;14.48;68.59;99683.53;5998873;28;20035;-67
2022/09/26 10:24:03;;;;;;;3.55;1.67;;;;;;;14.48;69.01;99662.19;5997959;28;19922;-67
2022/09/26 10:27:36;;;;;;;4.38;1.88;;;;;;;14.51;68.45;99675.94;6011135;28;20030;-67
2022/09/26 10:30:47;;;;;;;5.80;1.60;;;;;;;14.29;68.84;99677.03;5992930;28;20046;-67
2022/09/26 10:33:43;;;;;;;4.50;1.30;;;;;;;14.38;68.68;99667.88;6021954;28;20042;-67
2022/09/26 10:36:39;;;;;;;3.03;1.40;;;;;;;14.47;69.54;99663.19;6021431;28;20026;-67
2022/09/26 10:42:52;;;;;;;2.95;1.20;;;;;;;14.77;65.86;99660.09;6001550;28;20034;-67
2022/09/26 10:45:48;;;;;;;2.73;1.30;;;;;;;14.82;65.65;99646.13;6001756;28;20022;-67
2022/09/26 10:48:50;;;;;;;3.50;1.45;;;;;;;14.95;66.55;99653.38;6000728;28;20086;-67
2022/09/26 10:51:50;;;;;;;3.90;1.38;;;;;;;15.01;64.86;99652.56;6007270;28;20691;-67
2022/09/26 10:54:58;;;;;;;2.85;1.40;;;;;;;14.85;65.05;99632.38;6009258;28;20094;-67
2022/09/26 10:58:05;;;;;;;3.50;1.38;;;;;;;14.95;63.71;99635.50;6002438;28;20117;-67
2022/09/26 11:01:00;;;;;;;;;;;;;;;15.23;64.12;99641.53;6001917;28;20030;-68
2022/09/26 11:04:12;;;;;;;2.50;1.10;;;;;;;14.95;63.02;99624.00;6013453;28;20449;-68
2022/09/26 11:07:09;;;;;;;1.98;1.00;;;;;;;15.11;63.25;99624.44;6025834;28;20034;-68
2022/09/26 11:10:09;;;;;;;1.83;1.10;;;;;;;15.52;62.91;99631.56;6002451;28;20034;-67
2022/09/26 11:13:22;;;;;;;2.45;1.02;;;;;;;15.20;60.86;99628.59;6002229;28;20045;-68
2022/09/26 11:16:19;;;;;;;4.55;1.00;;;;;;;15.08;62.32;99614.19;5997972;28;20035;-68
2022/09/26 11:19:38;;;;;;;3.47;1.20;;;;;;;15.13;59.15;99600.22;6002140;28;20447;-68
2022/09/26 11:22:39;;;;;;;3.05;0.82;;;;;;;14.85;61.72;99603.03;6006816;28;20045;-68
2022/09/26 11:25:46;;;;;;;1.67;0.90;;;;;;;14.81;61.20;99607.13;6024140;28;20478;-65
2022/09/26 11:28:52;;;;;;;1.95;0.95;;;;;;;14.80;62.77;99594.81;6023526;28;20030;-68
2022/09/26 11:31:47;;;;;;;5.80;1.30;;;;;;;14.11;63.77;99594.84;6013279;28;20121;-68
2022/09/26 11:34:43;;;;;;;4.93;1.00;;;;;;;14.13;65.41;99592.81;6005876;28;20034;-68
2022/09/26 11:38:09;;;;;;;3.28;1.20;;;;;;;14.15;65.45;99596.13;5997667;28;20034;-68
2022/09/26 11:41:37;;;;;;;3.47;1.20;;;;;;;14.13;65.65;99597.34;5997467;28;20806;-67
2022/09/26 11:44:53;;;;;;;3.67;1.30;;;;;;;14.10;65.34;99569.22;5990735;28;20062;-67
2022/09/26 11:48:20;;;;;;;4.50;1.17;;;;;;;13.95;65.42;99581.84;6016040;28;20093;-67
2022/09/26 11:51:44;;;;;;;3.90;1.40;;;;;;;13.95;65.64;99573.84;6013149;28;20035;-68
2022/09/26 11:55:06;;;;;;;4.05;1.23;;;;;;;13.84;67.33;99577.03;6006655;28;20049;-67
2022/09/26 11:58:28;;;;;;;5.03;1.92;;;;;;;13.62;69.68;99573.63;5999524;28;20480;-67
2022/09/26 12:01:45;;;;;;;2.53;1.38;;;;;;;13.54;72.47;99572.94;6006338;28;20117;-67
2022/09/26 12:05:12;;;;;;;2.97;1.45;;;;;;;13.43;70.89;99557.47;6008661;28;20061;-68
2022/09/26 12:08:17;;;;;;;3.60;1.33;;;;;;;13.50;73.58;99574.34;6017332;28;20377;-68
2022/09/26 12:11:34;;;;;;;4.45;1.40;;;;;;;13.58;72.69;99566.22;6000688;28;20046;-67
2022/09/26 12:14:37;;;;;;;4.63;1.60;;;;;;;13.64;72.53;99555.59;6006291;28;20390;-67
2022/09/26 12:17:48;;;;;;;2.55;1.27;;;;;;;13.58;72.80;99564.38;6002192;28;20549;-68
2022/09/26 12:21:02;;;;;;;2.67;1.63;;;;;;;13.44;73.73;99543.16;5998096;28;20046;-67
2022/09/26 12:24:06;;;;;;;2.63;1.25;;;;;;;13.30;73.82;99547.53;5997451;28;20092;-67
2022/09/26 12:27:24;;;;;;;3.17;1.33;;;;;;;13.05;75.66;99555.06;5993979;28;20043;-66
2022/09/26 12:30:44;;;;;;;5.97;1.85;;;;;;;12.92;77.38;99533.66;5998706;28;20546;-66
2022/09/26 12:33:57;;;;;;;4.45;1.52;;;;;;;13.13;76.73;99532.84;5997371;28;20043;-67
2022/09/26 12:37:13;;;;;;;5.28;1.48;;;;;;;13.31;77.83;99537.72;5997792;28;20359;-67
2022/09/26 12:40:17;;;;;;;3.25;1.35;;;;;;;13.13;77.77;99521.41;6013463;28;20094;-68
2022/09/26 12:43:18;;;;;;;4.53;1.95;;;;;;;13.15;78.45;99522.03;6000065;28;20030;-67
2022/09/26 12:46:32;;;;;;;5.20;1.83;;;;;;;13.19;77.61;99528.59;5998272;28;20031;-67
2022/09/26 12:49:59;;;;;;;2.03;1.20;;;;;;;13.15;74.90;99517.53;5998819;28;20053;-68
2022/09/26 12:53:28;;;;;;;2.10;1.30;;;;;;;13.22;75.16;99506.91;5994107;28;20653;-66
2022/09/26 12:56:25;;;;;;;1.60;0.98;;;;;;;13.09;73.69;99513.78;5999333;28;20062;-67
2022/09/26 12:59:37;;;;;;;2.22;1.10;;;;;;;13.02;75.26;99514.69;5998968;28;20042;-67
2022/09/26 13:02:49;;;;;;;2.83;1.15;;;;;;;12.88;74.59;99511.09;5999112;28;20034;-67
2022/09/26 13:06:02;;;;;;;3.70;1.17;;;;;;;12.87;75.69;99514.78;5998682;28;20035;-66
2022/09/26 13:09:22;;;;;;;2.55;1.10;;;;;;;12.76;75.57;99507.31;5996515;28;20031;-67
2022/09/26 13:12:39;;;;;;;5.10;1.48;;;;;;;12.77;76.36;99508.97;5998513;28;20030;-67
2022/09/26 13:15:59;;;;;;;3.75;1.73;;;;;;;12.60;77.93;99488.94;5998976;28;20041;-66
2022/09/26 13:18:56;;;;;;;;;;;;;;;12.55;80.15;99499.31;6000186;28;20070;-67
2022/09/26 13:22:01;;;;;;;2.22;1.20;;;;;;;12.36;81.77;99503.41;5998894;28;19960;-67
2022/09/26 13:25:22;;;;;;;2.70;1.10;;;;;;;12.09;82.62;99508.59;5994993;28;20023;-66
2022/09/26 13:28:53;;;;;;;2.80;1.30;;;;;;;11.77;84.91;99505.28;6011792;28;20026;-66
2022/09/26 13:32:07;;;;;;;4.40;0.95;;;;;;;11.66;87.13;99500.41;5991433;28;20049;-66
2022/09/26 13:35:25;;;;;;;3.20;1.52;;;;;;;11.59;87.31;99485.38;6007473;28;20449;-66
2022/09/26 13:38:31;;;;;;;2.97;1.80;;;;;;;11.67;87.89;99485.28;5999411;28;20035;-66
2022/09/26 13:41:41;;;;;;;3.50;1.58;;;;;;;11.82;85.58;99470.22;5996795;28;20038;-67
2022/09/26 13:45:00;;;;;;;4.10;2.13;;;;;;;12.08;85.75;99464.41;5997022;28;20042;-66
2022/09/26 13:48:07;;;;;;;4.78;1.80;;;;;;;12.04;87.79;99445.34;6003088;28;20177;-67
2022/09/26 13:51:20;;;;;;;4.00;1.92;;;;;;;12.31;86.12;99460.59;5996259;28;20042;-66
2022/09/26 13:54:34;;;;;;;7.18;2.20;;;;;;;12.37;84.85;99443.06;5998736;28;20074;-66
2022/09/26 13:57:49;;;;;;;3.47;1.40;;;;;;;12.52;83.96;99447.34;5996115;28;20043;-68
2022/09/26 14:00:51;;;;;;;5.72;1.70;;;;;;;12.43;82.07;99431.69;5996744;28;20045;-66
2022/09/26 14:03:46;;;;;;;3.15;1.40;;;;;;;12.48;81.20;99435.41;5998813;28;20046;-66
2022/09/26 14:10:23;;;;;;;6.20;1.48;;;;;;;12.63;79.36;99435.34;5997073;28;20684;-67
2022/09/26 14:13:32;;;;;;;5.15;1.50;;;;;;;12.68;77.74;99434.78;6002469;28;20035;-67
2022/09/26 14:16:27;;;;;;;3.40;1.23;;;;;;;12.71;78.36;99434.41;6005417;28;20077;-66
2022/09/26 14:19:45;;;;;;;4.25;1.40;;;;;;;12.68;78.92;99424.13;6002370;28;20058;-67
2022/09/26 14:22:50;;;;;;;4.78;1.90;;;;;;;12.64;78.97;99423.69;6002825;28;20046;-67
2022/09/26 14:25:45;;;;;;;6.47;2.42;;;;;;;12.51;80.68;99420.91;6001126;28;20050;-67
2022/09/26 14:28:54;;;;;;;4.35;1.70;;;;;;;12.33;80.24;99399.28;6002171;28;20081;-67
2022/09/26 14:32:00;;;;;;;6.65;1.58;;;;;;;12.33;80.92;99394.78;6001565;28;20430;-66